Thunder radar more information blitzortung!


Radar de pluja more information rain snow radar


Visita la nostra xarxa de llocs de meteo:

Template documentation
and downloads

And another site



No particular awareness of the weather is required.    There are no Weather-warnings

Pagina Historial Weather Underground text

Diari Resum Octubre 28, 2017 Unitats:  Imperial    Mètric   Tant
« Previous Dia
SegĂźent Dia »
Diari Setmana Mensual Anual Personalitzada
  Maxima: Minima: Media:
Temperatura: 73.2 °F 53.4 °F 63.5 °F
Punt de rosada: 57.6 °F 47.1 °F 51.3 °F
Humitat: 87 % 50 % 65 %
Wind Speed: 8.1 mph 0 mph 2.9 mph
RĂ fegues de vent: 8.1 mph - -
Vent:- - SSE
Pression baro: 30.3 in 30.2 in -
Precipitacions: 0 in    
Historical Graphs
 
 
Dades de taula per Octubre 28, 2017
Temps Temperatura Punt de rosada Pression baro Vent Wind Speed RĂ fegues de vent Humitat Rainfall Rate (Hourly)
00:00 56.8 °F 49.6 °F 30.2 in Calm   2 mph 77 % 0 in
00:03 61.9 °F 57.4 °F 30.2 in Calm     85 % 0 in
00:08 61.7 °F 57 °F 30.2 in ESE 1.6 mph 1.6 mph 85 % 0 in
00:10 56.7 °F 49.5 °F 30.2 in WNW 1 mph 1 mph 77 % 0 in
00:13 61.5 °F 57 °F 30.2 in NE 1.6 mph 1.6 mph 85 % 0 in
00:18 61.3 °F 56.8 °F 30.2 in ENE 1.6 mph 1.6 mph 85 % 0 in
00:20 56.3 °F 49.5 °F 30.2 in NW 1 mph 2 mph 78 % 0 in
00:23 61.3 °F 57 °F 30.2 in NE 1.2 mph   86 % 0 in
00:28 61.3 °F 56.8 °F 30.2 in WSW 2.3 mph 2.3 mph 85 % 0 in
00:30 56.3 °F 49.3 °F 30.2 in NW 2 mph 3 mph 77 % 0 in
00:33 61.3 °F 57 °F 30.2 in Calm     86 % 0 in
00:38 61.3 °F 57 °F 30.2 in Calm     86 % 0 in
00:40 56.3 °F 49.3 °F 30.2 in NW 2 mph 4 mph 77 % 0 in
00:43 61.5 °F 57.6 °F 30.2 in Calm     87 % 0 in
00:50 56.1 °F 48.9 °F 30.2 in NNW 1 mph 3 mph 77 % 0 in
01:00 56.3 °F 49.3 °F 30.2 in NNE 1 mph 2 mph 77 % 0 in
01:10 55.9 °F 48.7 °F 30.2 in NNW 1 mph 2 mph 77 % 0 in
01:20 55.6 °F 48.6 °F 30.2 in WSW 2 mph 2 mph 77 % 0 in
01:30 55.6 °F 48.6 °F 30.2 in WSW 1 mph 2 mph 77 % 0 in
01:40 55.4 °F 48.7 °F 30.2 in WNW 1 mph 4 mph 78 % 0 in
01:50 55.6 °F 48.6 °F 30.2 in NNE 1 mph 3 mph 77 % 0 in
02:00 55.6 °F 48.6 °F 30.2 in NNE 1 mph 2 mph 77 % 0 in
02:10 55.4 °F 48.4 °F 30.2 in North 1 mph 2 mph 77 % 0 in
02:20 54.9 °F 48 °F 30.3 in North 1 mph 2 mph 78 % 0 in
02:30 54.5 °F 47.8 °F 30.2 in NE 2 mph 2 mph 78 % 0 in
02:40 54.3 °F 47.7 °F 30.2 in NNE 1 mph 3 mph 78 % 0 in
02:50 54.1 °F 47.5 °F 30.2 in North 1 mph 2 mph 78 % 0 in
03:00 53.8 °F 47.5 °F 30.3 in NNE 1 mph 3 mph 79 % 0 in
03:10 53.6 °F 47.1 °F 30.3 in North 1 mph 1 mph 79 % 0 in
03:20 53.4 °F 47.1 °F 30.3 in Calm   1 mph 79 % 0 in
03:30 53.4 °F 47.5 °F 30.3 in Calm   2 mph 80 % 0 in
03:40 53.4 °F 47.1 °F 30.3 in North 1 mph 2 mph 79 % 0 in
03:50 53.8 °F 47.5 °F 30.3 in NNW 2 mph 3 mph 79 % 0 in
04:00 53.6 °F 47.7 °F 30.3 in Calm   2 mph 80 % 0 in
04:10 54.5 °F 48 °F 30.3 in WNW 2 mph 2 mph 79 % 0 in
04:20 54.7 °F 48.4 °F 30.3 in WNW 1 mph 2 mph 79 % 0 in
04:30 55.8 °F 49.3 °F 30.3 in West 1 mph 2 mph 79 % 0 in
04:40 57 °F 50.2 °F 30.3 in NNW 2 mph 4 mph 78 % 0 in
04:50 58.1 °F 50.9 °F 30.3 in NNE 1 mph 3 mph 77 % 0 in
05:00 57.7 °F 50.2 °F 30.3 in NNE 3 mph 3 mph 76 % 0 in
05:10 57.7 °F 50.2 °F 30.3 in NNE 2 mph 4 mph 76 % 0 in
05:20 58.8 °F 51.3 °F 30.3 in NE 2 mph 3 mph 76 % 0 in
05:30 59 °F 51.1 °F 30.3 in NNE 2 mph 4 mph 75 % 0 in
10:36 59.4 °F 51.1 °F 30.3 in North 4.6 mph 4.6 mph 74 % 0 in
10:37 59.4 °F 51.1 °F 30.3 in North 4.6 mph 4.6 mph 74 % 0 in
10:38 59.5 °F 51.3 °F 30.3 in NNE 2.3 mph 2.3 mph 74 % 0 in
10:43 60.4 °F 52.2 °F 30.3 in ENE 2.3 mph 2.3 mph 74 % 0 in
10:48 60.4 °F 51.6 °F 30.3 in NE 3.8 mph 3.8 mph 73 % 0 in
10:53 60.4 °F 51.6 °F 30.3 in NE 3.5 mph 3.5 mph 73 % 0 in
10:58 61.2 °F 52.2 °F 30.3 in NNE 5.6 mph 5.6 mph 72 % 0 in
11:03 60.4 °F 51.1 °F 30.3 in NNE 4.6 mph 4.6 mph 71 % 0 in
11:08 61 °F 52 °F 30.3 in NE 3.5 mph 3.5 mph 72 % 0 in
11:13 61.2 °F 52.2 °F 30.3 in ENE 4.5 mph 4.5 mph 72 % 0 in
11:14 61.3 °F 52 °F 30.3 in NE 4.6 mph 4.6 mph 71 % 0 in
11:19 61.5 °F 52 °F 30.3 in ENE 5.8 mph 5.8 mph 71 % 0 in
11:24 61.5 °F 51.6 °F 30.3 in ENE 5.8 mph 5.8 mph 70 % 0 in
11:29 61.5 °F 51.6 °F 30.3 in NNE 6.4 mph 6.4 mph 70 % 0 in
11:34 61.3 °F 51.4 °F 30.3 in ENE 5.8 mph 5.8 mph 70 % 0 in
11:39 61.7 °F 51.8 °F 30.3 in ENE 3.5 mph 3.5 mph 70 % 0 in
11:44 61.9 °F 52 °F 30.3 in East 5.8 mph 5.8 mph 70 % 0 in
11:49 62.1 °F 51.8 °F 30.3 in NNE 4.6 mph 4.6 mph 69 % 0 in
11:54 62.8 °F 52.5 °F 30.3 in North 3.5 mph 3.5 mph 69 % 0 in
11:59 63.1 °F 52.3 °F 30.3 in NNE 3.8 mph 3.8 mph 68 % 0 in
12:09 63 °F 51.8 °F 30.3 in North 4.6 mph 4.6 mph 67 % 0 in
12:14 63.3 °F 52.2 °F 30.3 in NNE 4.6 mph 4.6 mph 67 % 0 in
12:19 63.3 °F 52.2 °F 30.3 in NNE 6.9 mph 6.9 mph 67 % 0 in
12:24 63.9 °F 52.7 °F 30.3 in NNW 3.1 mph 3.1 mph 67 % 0 in
12:29 64 °F 52.9 °F 30.3 in NE 4.6 mph 4.6 mph 67 % 0 in
12:34 64 °F 52.3 °F 30.3 in ENE 5.8 mph 5.8 mph 66 % 0 in
12:39 64 °F 52.3 °F 30.3 in NNE 4.6 mph 4.6 mph 66 % 0 in
12:44 64.4 °F 52.9 °F 30.3 in NNE 4.6 mph 4.6 mph 66 % 0 in
12:49 64.6 °F 52.5 °F 30.3 in NE 3.5 mph 3.5 mph 65 % 0 in
12:54 64.9 °F 52.9 °F 30.3 in North 3.5 mph 3.5 mph 65 % 0 in
12:59 65.7 °F 53.6 °F 30.3 in ENE 4.6 mph 4.6 mph 65 % 0 in
13:04 65.3 °F 52.9 °F 30.3 in NNE 4.6 mph 4.6 mph 64 % 0 in
13:09 65.5 °F 53.1 °F 30.3 in ENE 4.6 mph 4.6 mph 64 % 0 in
13:10 65.5 °F 53.1 °F 30.3 in ENE 4.6 mph 4.6 mph 64 % 0 in
13:15 66.2 °F 53.2 °F 30.3 in ENE 4.6 mph 4.6 mph 63 % 0 in
13:20 66.6 °F 53.6 °F 30.3 in North 3.5 mph 3.5 mph 63 % 0 in
13:25 66.4 °F 53.1 °F 30.3 in NE 4.6 mph 4.6 mph 62 % 0 in
13:30 66.6 °F 52.7 °F 30.3 in NE 2.6 mph 2.6 mph 61 % 0 in
13:35 66.7 °F 52.9 °F 30.3 in NE 4.6 mph 4.6 mph 61 % 0 in
13:40 67.1 °F 53.6 °F 30.2 in NNE 3.5 mph 3.5 mph 62 % 0 in
13:45 67.1 °F 53.2 °F 30.2 in NE 3.5 mph 3.5 mph 61 % 0 in
13:50 67.3 °F 52.9 °F 30.2 in ENE 2.9 mph 2.9 mph 60 % 0 in
13:55 67.5 °F 53.4 °F 30.2 in NNE 2.9 mph 2.9 mph 61 % 0 in
14:00 67.8 °F 54 °F 30.2 in NNE 4.6 mph 4.6 mph 61 % 0 in
14:05 68.2 °F 53.8 °F 30.2 in NNE 2 mph 2 mph 60 % 0 in
14:10 67.8 °F 53.4 °F 30.2 in ESE 2.3 mph 2.3 mph 60 % 0 in
14:15 68.2 °F 52.3 °F 30.2 in NE 3.5 mph 3.5 mph 57 % 0 in
14:20 68.4 °F 52.5 °F 30.2 in ESE 3.5 mph 3.8 mph 57 % 0 in
14:25 68.7 °F 52.9 °F 30.2 in SSE 3.5 mph 3.5 mph 57 % 0 in
14:30 69.3 °F 53.4 °F 30.2 in NNW 2.2 mph 2.2 mph 57 % 0 in
14:35 69.3 °F 53.4 °F 30.2 in NNE 1.6 mph   57 % 0 in
14:40 69.4 °F 53.4 °F 30.2 in West 1.4 mph 1.4 mph 57 % 0 in
14:45 69.6 °F 54.1 °F 30.2 in NW 3.5 mph 3.5 mph 58 % 0 in
14:50 69.8 °F 52.9 °F 30.2 in WSW 2.3 mph 2.3 mph 55 % 0 in
14:55 70.2 °F 53.8 °F 30.2 in SW 1.2 mph   56 % 0 in
15:00 70.9 °F 54 °F 30.2 in South 4.9 mph 4.9 mph 55 % 0 in
15:05 70.7 °F 52.7 °F 30.2 in South 2.3 mph 2.3 mph 53 % 0 in
15:10 71.1 °F 54.1 °F 30.2 in South 5.8 mph 5.8 mph 55 % 0 in
15:15 71.4 °F 52.9 °F 30.2 in SSE 5.8 mph 5.8 mph 52 % 0 in
15:20 70.7 °F 52.2 °F 30.2 in SW 2.3 mph 2.3 mph 52 % 0 in
15:25 71.4 °F 53.4 °F 30.2 in ESE 3.5 mph 3.5 mph 53 % 0 in
15:30 72 °F 54 °F 30.2 in West 3.5 mph 3.5 mph 53 % 0 in
15:35 71.6 °F 53.1 °F 30.2 in East 2.4 mph 2.4 mph 52 % 0 in
15:40 71.8 °F 53.8 °F 30.2 in South 2.3 mph 2.3 mph 53 % 0 in
15:45 72 °F 54 °F 30.2 in SW 3.5 mph 3.5 mph 53 % 0 in
15:50 72 °F 53.4 °F 30.2 in ESE 3.5 mph 3.5 mph 52 % 0 in
15:55 72.1 °F 53.4 °F 30.2 in SW 3.8 mph 3.8 mph 52 % 0 in
16:00 72.3 °F 53.8 °F 30.2 in WSW 2.6 mph 2.6 mph 52 % 0 in
16:05 71.4 °F 51.8 °F 30.2 in ESE 3.5 mph 3.5 mph 50 % 0 in
16:10 71.1 °F 52 °F 30.2 in ENE 3.5 mph 3.5 mph 51 % 0 in
16:15 71.2 °F 52.2 °F 30.2 in ESE 5.9 mph 5.9 mph 51 % 0 in
16:20 71.2 °F 52.2 °F 30.2 in NE 1.2 mph 1.2 mph 51 % 0 in
16:25 72.5 °F 53.2 °F 30.2 in South 4 mph   51 % 0 in
16:30 72.9 °F 54.1 °F 30.2 in SW 3.5 mph 3.5 mph 52 % 0 in
16:35 73 °F 53.8 °F 30.2 in SSE 2.3 mph   51 % 0 in
16:40 72.1 °F 52.5 °F 30.2 in East 2.3 mph 2.3 mph 50 % 0 in
16:45 71.6 °F 52 °F 30.2 in SE 3.5 mph 3.5 mph 50 % 0 in
16:50 72 °F 53.4 °F 30.2 in WSW 3.5 mph 3.5 mph 52 % 0 in
16:55 72.7 °F 53.4 °F 30.2 in SSW 3.5 mph 3.5 mph 51 % 0 in
17:00 73.2 °F 54.5 °F 30.2 in SSE 2.9 mph 2.9 mph 52 % 0 in
17:05 72 °F 52.3 °F 30.2 in ESE 3.5 mph 3.5 mph 50 % 0 in
17:10 71.2 °F 52.2 °F 30.2 in East 5.8 mph 5.8 mph 51 % 0 in
17:15 70.9 °F 52.3 °F 30.2 in East 5.8 mph 5.8 mph 52 % 0 in
17:20 70.3 °F 52.3 °F 30.2 in ESE 4.6 mph 4.6 mph 53 % 0 in
17:25 70.2 °F 52.2 °F 30.2 in ESE 5.8 mph 5.8 mph 53 % 0 in
17:30 70.3 °F 53.4 °F 30.2 in SSW 3.5 mph 3.5 mph 55 % 0 in
17:35 70.2 °F 53.8 °F 30.2 in ESE 3.5 mph 3.5 mph 56 % 0 in
17:40 70.2 °F 52.7 °F 30.2 in ESE 6.9 mph 6.9 mph 54 % 0 in
17:45 70.9 °F 53.4 °F 30.2 in SW 4.6 mph 4.6 mph 54 % 0 in
17:50 70.7 °F 52.7 °F 30.2 in South 8.1 mph 8.1 mph 53 % 0 in
17:55 70.5 °F 52.5 °F 30.2 in SW 4.9 mph 4.9 mph 53 % 0 in
18:00 70.5 °F 52.5 °F 30.2 in SW 3.5 mph 3.5 mph 53 % 0 in
18:05 70.3 °F 52.3 °F 30.2 in WSW 2.3 mph 2.3 mph 53 % 0 in
18:10 70.2 °F 52.2 °F 30.2 in WSW 4.6 mph 4.6 mph 53 % 0 in
18:15 70 °F 52.2 °F 30.2 in WSW 2.4 mph 2.4 mph 53 % 0 in
18:20 69.8 °F 52 °F 30.2 in WSW 2.3 mph 2.3 mph 53 % 0 in
18:25 69.4 °F 52.2 °F 30.2 in West 4.6 mph 4.6 mph 54 % 0 in
18:30 68.9 °F 51.6 °F 30.2 in SW 4.6 mph 4.6 mph 54 % 0 in
18:35 68.4 °F 51.1 °F 30.2 in SW 2.6 mph 2.6 mph 54 % 0 in
18:40 68 °F 51.3 °F 30.2 in WSW 2.3 mph 2.4 mph 55 % 0 in
18:45 67.5 °F 50.7 °F 30.2 in WSW 2.3 mph 2.3 mph 55 % 0 in
18:50 66.9 °F 50.7 °F 30.2 in SW 2.3 mph 2.3 mph 56 % 0 in
18:55 66.6 °F 50.4 °F 30.2 in SW 2.6 mph 2.6 mph 56 % 0 in
19:00 66 °F 50.4 °F 30.2 in West 3.5 mph 3.5 mph 57 % 0 in
19:05 65.7 °F 50 °F 30.2 in SW 2.4 mph 2.4 mph 57 % 0 in
19:10 65.3 °F 49.6 °F 30.2 in SW 2.3 mph 2.3 mph 57 % 0 in
19:15 65.1 °F 49.5 °F 30.2 in WSW 2.3 mph 2.4 mph 57 % 0 in
19:20 64.8 °F 49.6 °F 30.2 in WSW 3.5 mph 3.5 mph 58 % 0 in
19:25 64.6 °F 49.5 °F 30.2 in SW 2.4 mph 2.4 mph 58 % 0 in
19:30 64.2 °F 49.1 °F 30.2 in SW 3.5 mph 3.5 mph 58 % 0 in
19:35 64 °F 48.9 °F 30.2 in WSW 2.4 mph 2.4 mph 58 % 0 in
19:40 63.9 °F 49.3 °F 30.2 in SW 2.6 mph 2.6 mph 59 % 0 in
19:45 63.9 °F 49.3 °F 30.2 in SW 2.6 mph 2.6 mph 59 % 0 in
19:50 63.7 °F 49.1 °F 30.2 in WSW 2.3 mph 2.3 mph 59 % 0 in
19:55 63.5 °F 49.5 °F 30.2 in WSW 2.3 mph 2.3 mph 60 % 0 in
20:00 63.3 °F 49.3 °F 30.2 in West 2.3 mph 2.3 mph 60 % 0 in
20:05 63.1 °F 48.9 °F 30.2 in WSW 2.3 mph 2.4 mph 60 % 0 in
20:10 63.1 °F 49.5 °F 30.2 in WSW 2.6 mph 2.6 mph 61 % 0 in
20:15 62.8 °F 49.1 °F 30.2 in WSW 2.4 mph 2.4 mph 61 % 0 in
20:20 62.6 °F 48.9 °F 30.2 in SW 3.5 mph 3.5 mph 61 % 0 in
20:25 62.6 °F 49.5 °F 30.2 in West 2.3 mph 2.3 mph 62 % 0 in
20:30 62.6 °F 49.5 °F 30.2 in SW 2.3 mph 2.3 mph 62 % 0 in
20:35 62.4 °F 49.6 °F 30.2 in WSW 2.3 mph 2.3 mph 63 % 0 in
20:40 62.2 °F 49.8 °F 30.2 in SW 2.9 mph 2.9 mph 64 % 0 in
20:45 62.2 °F 49.8 °F 30.2 in SW 5.8 mph 5.8 mph 64 % 0 in
20:50 62.2 °F 50.4 °F 30.2 in SW 2.3 mph 2.3 mph 65 % 0 in
20:55 62.1 °F 50.2 °F 30.2 in WSW 2.9 mph 2.9 mph 65 % 0 in
21:00 61.9 °F 50 °F 30.2 in SW 2.4 mph 2.4 mph 65 % 0 in
21:05 61.9 °F 50.4 °F 30.2 in WSW 2.3 mph 2.3 mph 66 % 0 in
21:10 61.7 °F 50.2 °F 30.2 in WSW 2.4 mph 2.4 mph 66 % 0 in
21:15 61.7 °F 50.5 °F 30.2 in West 2.3 mph 2.3 mph 67 % 0 in
21:20 61.7 °F 50.5 °F 30.2 in WSW 2.4 mph 2.4 mph 67 % 0 in
21:25 61.7 °F 50.5 °F 30.2 in WSW 2.3 mph 2.3 mph 67 % 0 in
21:30 61.5 °F 50.9 °F 30.2 in WSW 1.2 mph 1.4 mph 68 % 0 in
21:35 61.3 °F 50.7 °F 30.2 in SW 2.3 mph 2.3 mph 68 % 0 in
21:40 61.2 °F 50.5 °F 30.2 in SW 2.3 mph 2.3 mph 68 % 0 in
21:45 60.8 °F 50.5 °F 30.2 in SW 2.3 mph 2.3 mph 69 % 0 in
21:50 60.8 °F 50.5 °F 30.2 in SW 2.3 mph 2.3 mph 69 % 0 in
21:55 60.6 °F 50.4 °F 30.2 in SW 2.3 mph 2.3 mph 69 % 0 in
22:00 60.6 °F 50.4 °F 30.2 in SW 2.3 mph 2.3 mph 69 % 0 in
22:05 60.4 °F 50.2 °F 30.2 in SW 2.3 mph 2.3 mph 69 % 0 in
22:10 60.3 °F 50 °F 30.2 in WSW 2.3 mph 2.3 mph 69 % 0 in
22:15 60.1 °F 49.8 °F 30.2 in WSW 2.3 mph 2.3 mph 69 % 0 in
22:20 59.9 °F 50.2 °F 30.2 in Calm     70 % 0 in
22:25 59.7 °F 49.8 °F 30.2 in SW 2.3 mph 2.3 mph 70 % 0 in
22:30 59.4 °F 49.6 °F 30.2 in WSW 2.3 mph 2.3 mph 70 % 0 in
22:35 59 °F 49.3 °F 30.2 in WSW 1.6 mph 1.6 mph 70 % 0 in
22:40 59.2 °F 49.5 °F 30.2 in WSW 1.2 mph 1.2 mph 70 % 0 in
22:45 59.4 °F 49.6 °F 30.2 in WSW 2.3 mph 2.3 mph 70 % 0 in
22:50 59.5 °F 49.6 °F 30.2 in West 2.3 mph 2.3 mph 70 % 0 in
22:55 59.7 °F 49.8 °F 30.2 in WSW 1.2 mph 1.2 mph 70 % 0 in
23:00 59.5 °F 49.6 °F 30.2 in Calm     70 % 0 in
23:05 59.5 °F 49.5 °F 30.2 in West 4.6 mph 4.6 mph 69 % 0 in
23:10 59.5 °F 48.9 °F 30.2 in WSW 2.6 mph 2.6 mph 68 % 0 in
23:15 59 °F 48.4 °F 30.2 in SSW 2.3 mph 2.3 mph 68 % 0 in
23:20 58.6 °F 48 °F 30.2 in SW 2.3 mph 2.3 mph 68 % 0 in
23:25 58.3 °F 47.8 °F 30.2 in SW 2.3 mph 2.3 mph 68 % 0 in
23:30 58.1 °F 47.7 °F 30.2 in SW 1.4 mph 1.4 mph 68 % 0 in
23:35 57.9 °F 47.5 °F 30.2 in SW 2.2 mph 2.2 mph 68 % 0 in
23:40 57.7 °F 47.1 °F 30.2 in WSW 1.2 mph 1.2 mph 68 % 0 in
23:45 57.6 °F 47.1 °F 30.2 in Calm     68 % 0 in
23:50 57.2 °F 47.1 °F 30.2 in ENE 1.2 mph 1.2 mph 69 % 0 in
23:55 57 °F 47.3 °F 30.2 in ENE 2.3 mph 2.3 mph 70 % 0 in
Meteo Sesrovires
Elogis d' Weather Underground - 3.75 mb

Guio original per  Jim McMurry - jmcmurry@mwt.net Adaptat per a la plantilla per  Wim van der Kuil - Leuven-Template.eu

Trobareu la nostra informacio del temps tambe a:

Weather Underground

AWEKAS